Latest Weather Observations for Moranbah Airport

IDQ60801

Issued at 9:02 am EST Wednesday 22 February 2017 (issued every 30 minutes, with the page automatically refreshed every 10 minutes)

About weather observations | Map of weather stations | Latest weather observations for QLD | Other Formats
Station Details ID: 034035 Name: MORANBAH AIRPORT Lat: -22.06 Lon: 148.08 Height: 232.2 m
Data from the previous 72 hours. | See also: Recent months at Moranbah Airport
Date/Time
EST
Temp
°C
App
Temp
°C
Dew
Point
°C
Rel
Hum
%
Delta-T
°C
Wind Press
QNH
hPa
Press
MSL
hPa
Rain since
9am
mm
Dir  Spd
km/h
Gust
km/h
Spd
kts
Gust
kts
22/09:00am 28.5 29.1 21.0 64 5.0 ESE 19 20 10 11 1016.4 1014.9 0.0
22/08:30am 27.6 28.5 20.9 67 4.5 ESE 17 22 9 12 1016.4 1014.9 0.0
22/08:00am 27.1 28.0 20.9 69 4.1 E 17 24 9 13 1016.2 1014.7 0.0
22/07:30am 27.2 28.9 21.0 69 4.1 SE 13 17 7 9 1016.1 1014.6 0.0
22/07:00am 25.4 27.6 21.1 77 2.9 SE 11 13 6 7 1016.0 1014.5 0.0
22/06:30am 24.4 26.5 20.1 77 2.8 SE 9 9 5 5 1015.9 1014.4 0.0
22/06:00am 24.6 26.8 20.3 77 2.8 SE 9 11 5 6 1015.8 1014.3 0.0
22/05:30am 24.4 26.6 20.3 78 2.7 SE 9 9 5 5 1015.6 1014.1 0.0
22/05:00am 23.9 26.3 20.0 79 2.5 SE 7 9 4 5 1015.4 1013.9 0.0
22/04:30am 23.8 26.6 19.7 78 2.7 E 4 6 2 3 1015.1 1013.6 0.0
22/04:00am 24.0 26.6 20.1 79 2.5 ESE 6 7 3 4 1014.9 1013.4 0.0
22/03:30am 24.2 26.4 19.7 76 2.9 E 7 9 4 5 1014.7 1013.1 0.0
22/03:00am 24.9 27.2 19.9 74 3.3 NE 7 7 4 4 1014.6 1013.0 0.0
22/02:30am 24.7 27.3 20.4 77 2.8 ENE 7 7 4 4 1014.8 1013.3 0.0
22/02:00am 23.7 25.9 19.6 78 2.7 ENE 7 9 4 5 1014.8 1013.3 0.0
22/01:30am 24.2 26.4 19.7 76 2.9 ENE 7 7 4 4 1015.0 1013.5 0.0
22/01:00am 24.5 26.3 19.6 74 3.2 NE 9 9 5 5 1015.2 1013.7 0.0
22/12:30am 25.2 27.7 19.8 72 3.5 ENE 6 7 3 4 1015.4 1013.9 0.0
22/12:00am 25.6 27.8 19.5 69 4.0 ENE 7 9 4 5 1015.4 1013.9 0.0
 
Date/Time
EST
Temp
°C
App
Temp
°C
Dew
Point
°C
Rel
Hum
%
Delta-T
°C
Wind Press
QNH
hPa
Press
MSL
hPa
Rain since
9am
mm
Dir  Spd
km/h
Gust
km/h
Spd
kts
Gust
kts
21/11:30pm 26.2 28.1 19.8 68 4.2 NE 9 11 5 6 1015.4 1013.9 0.0
21/11:00pm 26.4 27.9 19.8 67 4.3 NNE 11 15 6 8 1015.3 1013.8 0.0
21/10:30pm 26.5 28.2 19.4 65 4.6 NE 9 15 5 8 1015.2 1013.7 0.0
21/10:00pm 27.3 28.0 19.6 62 5.0 ENE 15 19 8 10 1014.6 1013.0 0.0
21/09:30pm 28.3 28.4 19.2 57 5.9 ENE 17 26 9 14 1014.3 1012.7 0.0
21/09:00pm 29.2 28.6 18.9 53 6.7 NE 20 28 11 15 1013.7 1012.1 0.0
21/08:30pm 30.1 28.9 17.5 46 8.1 ENE 20 30 11 16 1013.1 1011.5 0.0
21/08:00pm 30.6 29.5 17.7 46 8.3 ENE 20 30 11 16 1012.5 1010.9 0.0
21/07:30pm 31.5 30.4 17.8 44 8.9 ENE 20 30 11 16 1012.1 1010.6 0.0
21/07:00pm 32.4 30.9 14.1 33 11.2 ESE 15 22 8 12 1012.1 1010.6 0.0
21/06:30pm 32.9 30.8 12.5 29 12.3 ESE 15 19 8 10 1011.8 1010.3 0.0
21/06:00pm 33.8 31.2 13.3 29 12.5 ESE 19 26 10 14 1011.6 1010.1 0.0
21/05:30pm 34.9 32.1 13.1 27 13.3 SE 20 28 11 15 1011.5 1010.0 0.0
21/05:00pm 35.4 31.8 14.1 28 13.2 SE 26 35 14 19 1011.3 1009.8 0.0
21/04:30pm 35.5 33.4 13.6 26 13.5 ESE 17 24 9 13 1011.2 1009.7 0.0
21/04:00pm 35.4 33.3 13.5 26 13.5 ESE 17 26 9 14 1011.2 1009.7 0.0
21/03:30pm 35.1 33.7 13.3 27 13.4 SSE 13 24 7 13 1011.3 1009.8 0.0
21/03:00pm 35.0 33.5 13.2 27 13.4 SSE 13 22 7 12 1011.5 1010.0 0.0
21/02:30pm 34.7 31.8 13.0 27 13.2 SE 20 33 11 18 1011.8 1010.3 0.0
21/02:00pm 34.8 33.6 14.1 28 12.8 S 13 24 7 13 1012.1 1010.6 0.0
21/01:30pm 35.2 34.0 15.0 30 12.7 SE 15 26 8 14 1012.6 1011.0 0.0
21/01:00pm 34.9 34.5 15.3 31 12.4 ESE 11 22 6 12 1013.0 1011.4 0.0
21/12:30pm 34.7 34.8 16.5 33 11.7 ENE 11 22 6 12 1013.6 1012.0 0.0
21/12:00pm 34.0 34.2 16.8 35 11.0 E 11 20 6 11 1013.9 1012.3 0.0
21/11:30am 32.7 32.4 17.3 39 9.9 NE 15 24 8 13 1014.1 1012.5 0.0
21/11:00am 33.0 32.0 17.6 40 10.0 ENE 19 30 10 16 1014.4 1012.8 0.0
21/10:30am 31.5 32.0 19.2 48 8.1 ESE 15 24 8 13 1014.8 1013.3 0.0
21/10:00am 30.9 32.2 20.2 53 7.1 E 13 24 7 13 1015.1 1013.6 0.0
21/09:30am 29.8 30.5 20.4 57 6.3 ESE 17 26 9 14 1015.1 1013.6 0.0
21/09:00am 28.3 29.4 21.3 65 4.7 ESE 17 24 9 13 1015.2 1013.7 0.0
21/08:30am 27.9 29.2 21.7 69 4.2 ESE 17 24 9 13 1015.1 1013.6 0.0
21/08:00am 26.3 27.8 21.3 74 3.3 SE 15 19 8 10 1015.1 1013.6 0.0
21/07:30am 25.3 27.3 21.6 80 2.5 ESE 13 17 7 9 1014.9 1013.4 0.0
21/07:00am 23.6 26.6 20.9 85 1.8 SSE 6 7 3 4 1014.5 1012.9 0.0
21/06:30am 23.1 25.3 20.4 85 1.8 SSE 9 11 5 6 1014.2 1012.6 0.0
21/06:00am 22.6 24.9 20.7 89 1.2 S 9 11 5 6 1013.7 1012.1 0.0
21/05:30am 22.4 26.1 19.9 86 1.6 CALM 0 0 0 0 1013.6 1012.0 0.0
21/05:00am 22.6 24.6 19.9 85 1.8 S 9 11 5 6 1013.5 1011.9 0.0
21/04:30am 22.9 24.6 20.1 84 1.8 S 11 11 6 6 1013.3 1011.7 0.0
21/04:00am 22.8 24.8 20.0 84 1.8 S 9 11 5 6 1013.1 1011.5 0.0
21/03:30am 22.1 24.7 19.3 84 1.8 WSW 4 6 2 3 1013.0 1011.4 0.0
21/03:00am 22.3 24.5 19.1 82 2.0 W 6 6 3 3 1012.6 1011.0 0.0
21/02:30am 22.8 25.5 19.4 81 2.2 WNW 4 7 2 4 1012.5 1010.9 0.0
21/02:00am 23.2 24.6 19.6 80 2.3 ESE 11 13 6 7 1012.4 1010.8 0.0
21/01:30am 23.1 24.8 19.3 79 2.4 SE 9 11 5 6 1012.5 1010.9 0.0
21/01:00am 23.8 25.5 19.3 76 2.9 SE 9 11 5 6 1012.7 1011.1 0.0
21/12:30am 24.4 25.7 19.2 73 3.4 ESE 11 11 6 6 1012.6 1011.0 0.0
21/12:00am 25.0 27.0 19.1 70 3.8 ESE 7 9 4 5 1013.0 1011.4 0.0
 
Date/Time
EST
Temp
°C
App
Temp
°C
Dew
Point
°C
Rel
Hum
%
Delta-T
°C
Wind Press
QNH
hPa
Press
MSL
hPa
Rain since
9am
mm
Dir  Spd
km/h
Gust
km/h
Spd
kts
Gust
kts
20/11:30pm 25.2 26.4 19.1 69 3.9 ESE 11 13 6 7 1013.1 1011.5 0.0
20/11:00pm 25.7 27.3 19.1 67 4.3 E 9 11 5 6 1013.1 1011.5 0.0
20/10:30pm 25.5 26.9 18.7 66 4.4 ESE 9 11 5 6 1013.2 1011.6 0.0
20/10:00pm 26.0 27.3 18.4 63 4.9 SE 9 9 5 5 1012.8 1011.2 0.0
20/09:30pm 27.2 29.2 18.8 60 5.4 E 6 7 3 4 1012.6 1011.0 0.0
20/09:00pm 28.0 29.4 18.7 57 6.0 NE 9 15 5 8 1012.0 1010.5 0.0
20/08:30pm 28.6 28.4 18.4 54 6.6 NE 17 22 9 12 1011.4 1009.9 0.0
20/08:00pm 29.5 29.5 20.1 57 6.2 ENE 20 28 11 15 1011.0 1009.5 0.0
20/07:30pm 30.9 29.2 13.7 35 10.4 E 15 22 8 12 1010.2 1008.6 0.0
20/07:00pm 31.3 29.5 12.2 31 11.4 ESE 13 17 7 9 1009.6 1008.0 0.0
20/06:30pm 32.7 31.0 12.3 28 12.2 ESE 13 19 7 10 1009.3 1007.7 0.0
20/06:00pm 34.2 31.4 12.5 27 13.1 ESE 19 24 10 13 1008.9 1007.3 0.0
20/05:30pm 34.8 33.1 12.5 26 13.5 E 13 19 7 10 1008.5 1006.9 0.0
20/05:00pm 34.8 34.1 11.9 25 13.8 SSE 7 13 4 7 1008.3 1006.7 0.0
20/04:30pm 35.4 33.7 12.4 25 13.9 SE 13 19 7 10 1008.0 1006.4 0.0
20/04:00pm 35.9 33.7 13.4 26 13.9 SE 17 26 9 14 1007.8 1006.2 0.0
20/03:30pm 35.2 33.2 12.8 26 13.6 SE 15 24 8 13 1008.0 1006.4 0.0
20/03:00pm 34.9 33.8 13.1 27 13.3 SE 11 19 6 10 1008.1 1006.5 0.0
20/02:30pm 35.0 33.1 14.3 29 12.9 SE 17 32 9 17 1008.4 1006.8 0.0
20/02:00pm 34.8 32.5 14.1 28 12.8 SE 19 26 10 14 1008.9 1007.3 0.0
20/01:30pm 34.4 33.3 14.3 30 12.5 SE 13 24 7 13 1009.3 1007.7 0.0
20/01:00pm 34.2 32.8 15.6 32 11.8 SE 17 32 9 17 1009.9 1008.3 0.0
20/12:30pm 33.9 33.0 15.8 33 11.5 ENE 15 24 8 13 1010.5 1008.9 0.0
20/12:00pm 33.0 32.6 17.2 39 10.2 SE 15 30 8 16 1010.9 1009.4 0.0
20/11:30am 32.5 32.0 17.9 41 9.5 ESE 17 24 9 13 1011.3 1009.8 0.0
20/11:00am 31.5 31.7 18.5 46 8.5 SE 15 24 8 13 1011.6 1010.1 0.0
20/10:30am 31.3 31.6 19.6 49 7.7 ESE 17 22 9 12 1011.7 1010.2 0.0
20/10:00am 29.7 30.1 19.1 53 6.9 SE 15 22 8 12 1011.7 1010.2 0.0
20/09:30am 29.8 30.5 20.4 57 6.3 SE 17 22 9 12 1011.8 1010.3 0.0
20/09:00am 28.5 28.7 20.2 60 5.5 ESE 19 26 10 14 1011.7 1010.2 0.0
20/08:30am 27.3 27.6 20.4 66 4.6 SE 19 24 10 13 1011.8 1010.3 0.0
20/08:00am 26.7 27.0 20.3 68 4.2 ESE 19 24 10 13 1011.5 1010.0 0.0
20/07:30am 25.5 25.8 20.3 73 3.4 SE 19 24 10 13 1011.2 1009.7 0.0
20/07:00am 24.3 25.2 20.0 77 2.8 SE 15 20 8 11 1011.0 1009.5 0.0
20/06:30am 23.6 25.2 19.9 80 2.4 ESE 11 13 6 7 1010.8 1009.2 0.0
20/06:00am 23.3 25.2 19.7 80 2.3 ESE 9 11 5 6 1010.5 1008.9 0.0
20/05:30am 23.6 24.7 19.7 79 2.5 SE 13 17 7 9 1010.3 1008.7 0.0
20/05:00am 23.7 24.6 20.0 80 2.4 ESE 15 20 8 11 1010.1 1008.5 0.0
20/04:30am 23.5 25.7 20.4 83 2.0 SE 9 13 5 7 1009.9 1008.3 0.0
20/04:00am 23.7 25.4 20.2 81 2.3 ESE 11 13 6 7 1009.5 1007.9 0.0
20/03:30am 23.9 25.2 20.2 80 2.4 SE 13 15 7 8 1009.4 1007.8 0.0
20/03:00am 23.7 25.4 20.2 81 2.3 ESE 11 13 6 7 1009.3 1007.7 0.0
20/02:30am 23.7 25.8 20.2 81 2.3 ESE 9 11 5 6 1009.6 1008.0 0.0
20/02:00am 24.1 25.5 20.4 80 2.4 SSE 13 19 7 10 1009.6 1008.0 0.0
20/01:30am 23.8 25.9 20.1 80 2.4 SSE 9 9 5 5 1009.5 1007.9 0.0
20/01:00am 24.2 26.3 20.1 78 2.7 SSE 9 11 5 6 1009.8 1008.2 0.0
20/12:30am 24.3 26.4 20.2 78 2.7 SE 9 11 5 6 1010.1 1008.5 0.0
20/12:00am 24.6 27.2 20.1 76 2.9 SSE 6 6 3 3 1010.3 1008.7 0.0
 
Date/Time
EST
Temp
°C
App
Temp
°C
Dew
Point
°C
Rel
Hum
%
Delta-T
°C
Wind Press
QNH
hPa
Press
MSL
hPa
Rain since
9am
mm
Dir  Spd
km/h
Gust
km/h
Spd
kts
Gust
kts
19/11:30pm 25.1 28.6 20.4 75 3.1 SSE 2 7 1 4 1010.4 1008.8 0.0
19/11:00pm 25.3 29.1 20.1 73 3.4 CALM 0 0 0 0 1010.6 1009.0 0.0
19/10:30pm 25.5 27.8 19.9 71 3.7 S 7 7 4 4 1010.6 1009.0 0.0
19/10:00pm 25.8 28.7 19.9 70 3.9 SSE 4 6 2 3 1010.6 1009.0 0.0
19/09:30pm 26.0 28.0 19.9 69 4.0 SE 9 9 5 5 1010.5 1008.9 0.0
19/09:00pm 26.3 28.6 19.9 68 4.2 SE 7 9 4 5 1010.2 1008.6 0.0
19/08:30pm 26.9 29.3 20.0 66 4.5 E 7 11 4 6 1009.8 1008.2 0.0
19/08:00pm 27.4 28.4 20.2 65 4.8 E 15 19 8 10 1009.5 1007.9 0.0
19/07:30pm 27.7 28.9 20.0 63 5.1 E 13 20 7 11 1008.9 1007.3 0.0
19/07:00pm 29.0 30.0 16.9 48 7.7 SW 7 9 4 5 1008.6 1007.0 0.0
19/06:30pm 30.1 30.4 16.9 45 8.4 WSW 11 17 6 9 1008.3 1006.7 0.0
19/06:00pm 31.6 31.9 16.0 39 9.8 SW 9 17 5 9 1007.9 1006.3 0.0
19/05:30pm 31.2 31.5 16.0 40 9.6 SW 9 15 5 8 1007.2 1005.7 0.0
19/05:00pm 31.0 31.1 16.6 42 9.2 SW 11 15 6 8 1006.5 1004.9 0.0
19/04:30pm 30.6 29.0 16.6 43 8.9 SW 20 28 11 15 1006.7 1005.1 0.0
19/04:00pm 30.6 29.8 17.0 44 8.7 WSW 17 22 9 12 1006.7 1005.1 0.0
19/03:30pm 31.2 29.7 16.8 42 9.2 SW 20 28 11 15 1007.1 1005.6 0.0
19/03:00pm 30.9 30.0 18.3 47 8.2 SW 20 28 11 15 1007.5 1006.0 0.0
19/02:30pm 32.5 31.0 16.8 39 10.0 WSW 20 28 11 15 1007.6 1006.1 0.0
19/02:00pm 33.0 31.7 16.8 38 10.4 WSW 19 28 10 15 1007.9 1006.3 0.0
19/01:30pm 32.9 31.9 17.5 39 10.0 W 19 26 10 14 1008.2 1006.6 0.0
19/01:00pm 32.9 33.3 19.0 43 9.2 W 15 28 8 15 1008.3 1006.7 0.0
19/12:30pm 33.8 35.3 19.8 43 9.4 N 11 24 6 13 1008.9 1007.3 0.0
19/12:00pm 31.5 32.7 19.8 49 7.8 NNW 13 20 7 11 1009.5 1007.9 0.0
19/11:30am 30.6 32.2 19.9 52 7.1 NW 11 15 6 8 1009.9 1008.3 0.0
19/11:00am 30.4 32.2 20.3 54 6.7 NW 11 17 6 9 1010.1 1008.5 0.0
19/10:30am 30.3 31.5 20.0 54 6.8 NW 13 17 7 9 1010.4 1008.8 0.0
19/10:00am 29.9 31.1 19.9 55 6.6 WNW 13 17 7 9 1010.6 1009.0 0.0
19/09:30am 29.7 31.2 20.5 57 6.1 NNW 13 20 7 11 1010.5 1008.9 0.0

Other Formats:

Comma delimited format used in spreadsheet applications
http://www.bom.gov.au/fwo/IDQ60801/IDQ60801.94397.axf

JavaScript Object Notation format (JSON) in row-major order
http://www.bom.gov.au/fwo/IDQ60801/IDQ60801.94397.json